sensor_id;sensor_type;location;lat;lon;timestamp;temperature;humidity
8820;DHT22;4446;50.876;4.736;2023-07-13T00:01:48;14.30;99.90
8820;DHT22;4446;50.876;4.736;2023-07-13T00:04:16;14.50;99.90
8820;DHT22;4446;50.876;4.736;2023-07-13T00:06:43;14.60;99.90
8820;DHT22;4446;50.876;4.736;2023-07-13T00:09:11;14.60;99.90
8820;DHT22;4446;50.876;4.736;2023-07-13T00:11:39;14.60;99.90
8820;DHT22;4446;50.876;4.736;2023-07-13T00:14:07;14.60;99.90
8820;DHT22;4446;50.876;4.736;2023-07-13T00:16:36;14.60;99.90
8820;DHT22;4446;50.876;4.736;2023-07-13T00:19:05;14.60;99.90
8820;DHT22;4446;50.876;4.736;2023-07-13T00:21:32;14.60;99.90
8820;DHT22;4446;50.876;4.736;2023-07-13T00:23:59;14.50;99.90
8820;DHT22;4446;50.876;4.736;2023-07-13T00:26:26;14.40;99.90
8820;DHT22;4446;50.876;4.736;2023-07-13T00:28:54;14.30;99.90
8820;DHT22;4446;50.876;4.736;2023-07-13T00:31:21;14.20;99.90
8820;DHT22;4446;50.876;4.736;2023-07-13T00:33:47;14.20;99.90
8820;DHT22;4446;50.876;4.736;2023-07-13T00:36:16;14.20;99.90
8820;DHT22;4446;50.876;4.736;2023-07-13T00:38:43;14.20;99.90
8820;DHT22;4446;50.876;4.736;2023-07-13T00:41:10;14.20;99.90
8820;DHT22;4446;50.876;4.736;2023-07-13T00:43:37;14.10;99.90
8820;DHT22;4446;50.876;4.736;2023-07-13T00:46:26;14.10;99.90
8820;DHT22;4446;50.876;4.736;2023-07-13T00:48:54;14.10;99.90
8820;DHT22;4446;50.876;4.736;2023-07-13T00:51:27;14.10;99.90
8820;DHT22;4446;50.876;4.736;2023-07-13T00:53:59;14.10;99.90
8820;DHT22;4446;50.876;4.736;2023-07-13T00:56:26;14.10;99.90
8820;DHT22;4446;50.876;4.736;2023-07-13T00:58:54;14.10;99.90
8820;DHT22;4446;50.876;4.736;2023-07-13T01:01:21;14.10;99.90
8820;DHT22;4446;50.876;4.736;2023-07-13T01:03:48;14.20;99.90
8820;DHT22;4446;50.876;4.736;2023-07-13T01:06:16;14.10;99.90
8820;DHT22;4446;50.876;4.736;2023-07-13T01:08:45;14.00;99.90
8820;DHT22;4446;50.876;4.736;2023-07-13T01:11:12;14.10;99.90
8820;DHT22;4446;50.876;4.736;2023-07-13T01:13:44;14.10;99.90
8820;DHT22;4446;50.876;4.736;2023-07-13T01:16:21;14.10;99.90
8820;DHT22;4446;50.876;4.736;2023-07-13T01:18:48;14.10;99.90
8820;DHT22;4446;50.876;4.736;2023-07-13T01:21:17;14.10;99.90
8820;DHT22;4446;50.876;4.736;2023-07-13T01:23:45;14.10;99.90
8820;DHT22;4446;50.876;4.736;2023-07-13T01:26:12;14.10;99.90
8820;DHT22;4446;50.876;4.736;2023-07-13T01:28:39;14.00;99.90
8820;DHT22;4446;50.876;4.736;2023-07-13T01:31:06;14.10;99.90
8820;DHT22;4446;50.876;4.736;2023-07-13T01:33:34;14.00;99.90
8820;DHT22;4446;50.876;4.736;2023-07-13T01:36:01;13.90;99.90
8820;DHT22;4446;50.876;4.736;2023-07-13T01:38:29;13.90;99.90
8820;DHT22;4446;50.876;4.736;2023-07-13T01:40:56;14.00;99.90
8820;DHT22;4446;50.876;4.736;2023-07-13T01:43:23;13.90;99.90
8820;DHT22;4446;50.876;4.736;2023-07-13T01:45:50;13.90;99.90
8820;DHT22;4446;50.876;4.736;2023-07-13T01:48:17;13.80;99.90
8820;DHT22;4446;50.876;4.736;2023-07-13T01:50:47;13.80;99.90
8820;DHT22;4446;50.876;4.736;2023-07-13T01:53:14;13.80;99.90
8820;DHT22;4446;50.876;4.736;2023-07-13T01:55:43;13.70;99.90
8820;DHT22;4446;50.876;4.736;2023-07-13T01:58:10;13.70;99.90
8820;DHT22;4446;50.876;4.736;2023-07-13T02:00:37;13.70;99.90
8820;DHT22;4446;50.876;4.736;2023-07-13T02:03:04;13.70;99.90
8820;DHT22;4446;50.876;4.736;2023-07-13T02:05:31;13.70;99.90
8820;DHT22;4446;50.876;4.736;2023-07-13T02:07:58;13.70;99.90
8820;DHT22;4446;50.876;4.736;2023-07-13T02:10:25;13.70;99.90
8820;DHT22;4446;50.876;4.736;2023-07-13T02:12:53;13.70;99.90
8820;DHT22;4446;50.876;4.736;2023-07-13T02:15:20;13.80;99.90
8820;DHT22;4446;50.876;4.736;2023-07-13T02:17:47;13.70;99.90
8820;DHT22;4446;50.876;4.736;2023-07-13T02:20:14;13.70;99.90
8820;DHT22;4446;50.876;4.736;2023-07-13T02:22:41;13.70;99.90
8820;DHT22;4446;50.876;4.736;2023-07-13T02:25:08;13.60;99.90
8820;DHT22;4446;50.876;4.736;2023-07-13T02:27:35;13.60;99.90
8820;DHT22;4446;50.876;4.736;2023-07-13T02:30:05;13.60;99.90
8820;DHT22;4446;50.876;4.736;2023-07-13T02:32:32;13.70;99.90
8820;DHT22;4446;50.876;4.736;2023-07-13T02:34:59;13.70;99.90
8820;DHT22;4446;50.876;4.736;2023-07-13T02:37:26;13.70;99.90
8820;DHT22;4446;50.876;4.736;2023-07-13T02:39:53;13.70;99.90
8820;DHT22;4446;50.876;4.736;2023-07-13T02:42:20;13.60;99.90
8820;DHT22;4446;50.876;4.736;2023-07-13T02:44:47;13.50;99.90
8820;DHT22;4446;50.876;4.736;2023-07-13T02:47:16;13.60;99.90
8820;DHT22;4446;50.876;4.736;2023-07-13T02:49:43;13.60;99.90
8820;DHT22;4446;50.876;4.736;2023-07-13T02:52:10;13.60;99.90
8820;DHT22;4446;50.876;4.736;2023-07-13T02:54:37;13.70;99.90
8820;DHT22;4446;50.876;4.736;2023-07-13T02:57:05;13.70;99.90
8820;DHT22;4446;50.876;4.736;2023-07-13T02:59:32;13.80;99.90
8820;DHT22;4446;50.876;4.736;2023-07-13T03:02:00;13.80;99.90
8820;DHT22;4446;50.876;4.736;2023-07-13T03:04:28;13.80;99.90
8820;DHT22;4446;50.876;4.736;2023-07-13T03:06:55;13.80;99.90
8820;DHT22;4446;50.876;4.736;2023-07-13T03:09:23;13.80;99.90
8820;DHT22;4446;50.876;4.736;2023-07-13T03:11:52;13.80;99.90
8820;DHT22;4446;50.876;4.736;2023-07-13T03:14:20;13.80;99.90
8820;DHT22;4446;50.876;4.736;2023-07-13T03:16:47;13.80;99.90
8820;DHT22;4446;50.876;4.736;2023-07-13T03:19:14;13.80;99.90
8820;DHT22;4446;50.876;4.736;2023-07-13T03:21:43;13.80;99.90
8820;DHT22;4446;50.876;4.736;2023-07-13T03:24:09;13.90;99.90
8820;DHT22;4446;50.876;4.736;2023-07-13T03:26:37;13.90;99.90
8820;DHT22;4446;50.876;4.736;2023-07-13T03:29:04;14.00;99.90
8820;DHT22;4446;50.876;4.736;2023-07-13T03:31:34;14.00;99.90
8820;DHT22;4446;50.876;4.736;2023-07-13T03:34:01;13.90;99.90
8820;DHT22;4446;50.876;4.736;2023-07-13T03:36:31;13.90;99.90
8820;DHT22;4446;50.876;4.736;2023-07-13T03:39:02;13.80;99.90
8820;DHT22;4446;50.876;4.736;2023-07-13T03:41:30;13.80;99.90
8820;DHT22;4446;50.876;4.736;2023-07-13T03:43:57;13.70;99.90
8820;DHT22;4446;50.876;4.736;2023-07-13T03:46:24;13.70;99.90
8820;DHT22;4446;50.876;4.736;2023-07-13T03:48:51;13.70;99.90
8820;DHT22;4446;50.876;4.736;2023-07-13T03:51:19;13.60;99.90
8820;DHT22;4446;50.876;4.736;2023-07-13T03:53:47;13.70;99.90
8820;DHT22;4446;50.876;4.736;2023-07-13T03:56:16;13.60;99.90
8820;DHT22;4446;50.876;4.736;2023-07-13T03:58:45;13.60;99.90
8820;DHT22;4446;50.876;4.736;2023-07-13T04:01:13;13.70;99.90
8820;DHT22;4446;50.876;4.736;2023-07-13T04:03:40;13.80;99.90
8820;DHT22;4446;50.876;4.736;2023-07-13T04:06:17;13.80;99.90
8820;DHT22;4446;50.876;4.736;2023-07-13T04:08:48;13.90;99.90
8820;DHT22;4446;50.876;4.736;2023-07-13T04:11:17;13.90;99.90
8820;DHT22;4446;50.876;4.736;2023-07-13T04:13:45;14.10;99.90
8820;DHT22;4446;50.876;4.736;2023-07-13T04:16:12;14.10;99.90
8820;DHT22;4446;50.876;4.736;2023-07-13T04:18:39;14.20;99.90
8820;DHT22;4446;50.876;4.736;2023-07-13T04:21:07;14.30;99.90
8820;DHT22;4446;50.876;4.736;2023-07-13T04:23:34;14.40;99.90
8820;DHT22;4446;50.876;4.736;2023-07-13T04:26:01;14.50;99.90
8820;DHT22;4446;50.876;4.736;2023-07-13T04:28:29;14.60;99.90
8820;DHT22;4446;50.876;4.736;2023-07-13T04:30:57;14.60;99.90
8820;DHT22;4446;50.876;4.736;2023-07-13T04:33:24;14.70;99.90
8820;DHT22;4446;50.876;4.736;2023-07-13T04:35:51;14.90;99.90
8820;DHT22;4446;50.876;4.736;2023-07-13T04:38:22;14.90;99.90
8820;DHT22;4446;50.876;4.736;2023-07-13T04:40:50;14.90;99.90
8820;DHT22;4446;50.876;4.736;2023-07-13T04:43:18;15.00;99.90
8820;DHT22;4446;50.876;4.736;2023-07-13T04:45:46;15.00;99.90
8820;DHT22;4446;50.876;4.736;2023-07-13T04:48:13;15.10;99.90
8820;DHT22;4446;50.876;4.736;2023-07-13T04:50:40;15.20;99.90
8820;DHT22;4446;50.876;4.736;2023-07-13T04:53:08;15.20;99.90
8820;DHT22;4446;50.876;4.736;2023-07-13T04:55:36;15.20;99.90
8820;DHT22;4446;50.876;4.736;2023-07-13T04:58:03;15.20;99.90
8820;DHT22;4446;50.876;4.736;2023-07-13T05:00:30;15.20;99.90
8820;DHT22;4446;50.876;4.736;2023-07-13T05:02:59;15.20;99.90
8820;DHT22;4446;50.876;4.736;2023-07-13T05:05:27;15.30;99.90
8820;DHT22;4446;50.876;4.736;2023-07-13T05:07:54;15.40;99.90
8820;DHT22;4446;50.876;4.736;2023-07-13T05:10:21;15.50;99.90
8820;DHT22;4446;50.876;4.736;2023-07-13T05:12:49;15.60;99.90
8820;DHT22;4446;50.876;4.736;2023-07-13T05:15:16;15.70;99.90
8820;DHT22;4446;50.876;4.736;2023-07-13T05:17:46;15.80;99.90
8820;DHT22;4446;50.876;4.736;2023-07-13T05:20:15;15.90;99.90
8820;DHT22;4446;50.876;4.736;2023-07-13T05:22:43;15.90;99.90
8820;DHT22;4446;50.876;4.736;2023-07-13T05:25:12;15.90;99.90
8820;DHT22;4446;50.876;4.736;2023-07-13T05:27:39;16.00;99.90
8820;DHT22;4446;50.876;4.736;2023-07-13T05:30:07;16.10;99.90
8820;DHT22;4446;50.876;4.736;2023-07-13T05:32:36;16.20;99.90
8820;DHT22;4446;50.876;4.736;2023-07-13T05:35:04;16.30;99.90
8820;DHT22;4446;50.876;4.736;2023-07-13T05:37:32;16.40;99.90
8820;DHT22;4446;50.876;4.736;2023-07-13T05:39:59;16.50;99.90
8820;DHT22;4446;50.876;4.736;2023-07-13T05:42:26;16.50;99.90
8820;DHT22;4446;50.876;4.736;2023-07-13T05:44:53;16.70;99.90
8820;DHT22;4446;50.876;4.736;2023-07-13T05:47:20;16.60;99.90
8820;DHT22;4446;50.876;4.736;2023-07-13T05:49:47;16.70;99.90
8820;DHT22;4446;50.876;4.736;2023-07-13T05:52:14;16.80;99.90
8820;DHT22;4446;50.876;4.736;2023-07-13T05:54:42;16.90;99.90
8820;DHT22;4446;50.876;4.736;2023-07-13T05:57:12;17.00;99.90
8820;DHT22;4446;50.876;4.736;2023-07-13T05:59:39;17.00;99.90
8820;DHT22;4446;50.876;4.736;2023-07-13T06:02:08;17.10;99.90
8820;DHT22;4446;50.876;4.736;2023-07-13T06:04:36;17.10;99.90
8820;DHT22;4446;50.876;4.736;2023-07-13T06:07:04;17.20;99.90
8820;DHT22;4446;50.876;4.736;2023-07-13T06:09:31;17.30;99.90
8820;DHT22;4446;50.876;4.736;2023-07-13T06:12:00;17.40;99.90
8820;DHT22;4446;50.876;4.736;2023-07-13T06:14:27;17.40;99.90
8820;DHT22;4446;50.876;4.736;2023-07-13T06:16:54;17.40;99.90
8820;DHT22;4446;50.876;4.736;2023-07-13T06:19:22;17.40;99.90
8820;DHT22;4446;50.876;4.736;2023-07-13T06:21:49;17.50;99.90
8820;DHT22;4446;50.876;4.736;2023-07-13T06:24:16;17.50;99.90
8820;DHT22;4446;50.876;4.736;2023-07-13T06:26:43;17.60;99.90
8820;DHT22;4446;50.876;4.736;2023-07-13T06:29:11;17.60;99.90
8820;DHT22;4446;50.876;4.736;2023-07-13T06:31:38;17.70;99.90
8820;DHT22;4446;50.876;4.736;2023-07-13T06:34:05;17.80;99.90
8820;DHT22;4446;50.876;4.736;2023-07-13T06:36:32;17.80;99.90
8820;DHT22;4446;50.876;4.736;2023-07-13T06:38:59;17.80;99.90
8820;DHT22;4446;50.876;4.736;2023-07-13T06:41:26;17.80;99.90
8820;DHT22;4446;50.876;4.736;2023-07-13T06:43:52;17.90;99.90
8820;DHT22;4446;50.876;4.736;2023-07-13T06:46:22;18.00;99.90
8820;DHT22;4446;50.876;4.736;2023-07-13T06:48:49;18.30;99.90
8820;DHT22;4446;50.876;4.736;2023-07-13T06:51:17;18.30;99.90
8820;DHT22;4446;50.876;4.736;2023-07-13T06:53:44;18.50;99.90
8820;DHT22;4446;50.876;4.736;2023-07-13T06:56:11;18.70;99.90
8820;DHT22;4446;50.876;4.736;2023-07-13T06:58:38;18.60;99.90
8820;DHT22;4446;50.876;4.736;2023-07-13T07:01:05;18.50;99.90
8820;DHT22;4446;50.876;4.736;2023-07-13T07:03:33;18.60;99.90
8820;DHT22;4446;50.876;4.736;2023-07-13T07:06:01;18.70;99.90
8820;DHT22;4446;50.876;4.736;2023-07-13T07:08:28;18.70;99.90
8820;DHT22;4446;50.876;4.736;2023-07-13T07:10:55;18.70;99.90
8820;DHT22;4446;50.876;4.736;2023-07-13T07:13:22;18.80;99.90
8820;DHT22;4446;50.876;4.736;2023-07-13T07:15:50;18.90;99.90
8820;DHT22;4446;50.876;4.736;2023-07-13T07:18:17;18.80;99.90
8820;DHT22;4446;50.876;4.736;2023-07-13T07:20:46;18.80;99.90
8820;DHT22;4446;50.876;4.736;2023-07-13T07:23:13;19.00;99.90
8820;DHT22;4446;50.876;4.736;2023-07-13T07:25:40;19.30;99.90
8820;DHT22;4446;50.876;4.736;2023-07-13T07:28:08;19.30;99.90
8820;DHT22;4446;50.876;4.736;2023-07-13T07:30:35;19.40;99.90
8820;DHT22;4446;50.876;4.736;2023-07-13T07:33:03;19.60;99.90
8820;DHT22;4446;50.876;4.736;2023-07-13T07:35:30;19.80;99.90
8820;DHT22;4446;50.876;4.736;2023-07-13T07:37:59;20.10;99.90
8820;DHT22;4446;50.876;4.736;2023-07-13T07:40:25;20.10;99.90
8820;DHT22;4446;50.876;4.736;2023-07-13T07:42:53;20.30;99.90
8820;DHT22;4446;50.876;4.736;2023-07-13T07:45:21;20.40;99.90
8820;DHT22;4446;50.876;4.736;2023-07-13T07:47:48;20.30;99.90
8820;DHT22;4446;50.876;4.736;2023-07-13T07:50:16;20.30;99.90
8820;DHT22;4446;50.876;4.736;2023-07-13T07:52:45;20.30;99.90
8820;DHT22;4446;50.876;4.736;2023-07-13T07:55:13;20.40;99.90
8820;DHT22;4446;50.876;4.736;2023-07-13T07:57:40;20.30;99.90
8820;DHT22;4446;50.876;4.736;2023-07-13T08:00:08;20.10;99.90
8820;DHT22;4446;50.876;4.736;2023-07-13T08:02:35;20.00;99.90
8820;DHT22;4446;50.876;4.736;2023-07-13T08:05:03;20.10;99.90
8820;DHT22;4446;50.876;4.736;2023-07-13T08:07:30;20.00;99.90
8820;DHT22;4446;50.876;4.736;2023-07-13T08:09:57;20.00;99.90
8820;DHT22;4446;50.876;4.736;2023-07-13T08:12:26;20.00;99.90
8820;DHT22;4446;50.876;4.736;2023-07-13T08:14:53;19.90;99.90
8820;DHT22;4446;50.876;4.736;2023-07-13T08:17:23;20.00;99.90
8820;DHT22;4446;50.876;4.736;2023-07-13T08:19:50;19.90;99.90
8820;DHT22;4446;50.876;4.736;2023-07-13T08:22:17;19.90;99.90
8820;DHT22;4446;50.876;4.736;2023-07-13T08:24:44;20.00;99.90
8820;DHT22;4446;50.876;4.736;2023-07-13T08:27:13;20.30;99.90
8820;DHT22;4446;50.876;4.736;2023-07-13T08:29:41;20.50;99.90
8820;DHT22;4446;50.876;4.736;2023-07-13T08:32:08;20.60;99.90
8820;DHT22;4446;50.876;4.736;2023-07-13T08:34:36;20.50;99.90
8820;DHT22;4446;50.876;4.736;2023-07-13T08:37:03;20.60;99.90
8820;DHT22;4446;50.876;4.736;2023-07-13T08:39:30;20.50;99.90
8820;DHT22;4446;50.876;4.736;2023-07-13T08:42:01;20.50;99.90
8820;DHT22;4446;50.876;4.736;2023-07-13T08:44:39;20.40;99.90
8820;DHT22;4446;50.876;4.736;2023-07-13T08:47:09;20.40;99.90
8820;DHT22;4446;50.876;4.736;2023-07-13T08:49:38;20.40;99.90
8820;DHT22;4446;50.876;4.736;2023-07-13T08:52:10;20.40;99.90
8820;DHT22;4446;50.876;4.736;2023-07-13T08:54:43;20.70;99.90
8820;DHT22;4446;50.876;4.736;2023-07-13T08:57:13;20.60;99.90
8820;DHT22;4446;50.876;4.736;2023-07-13T08:59:41;20.60;99.90
8820;DHT22;4446;50.876;4.736;2023-07-13T09:02:26;20.80;99.90
8820;DHT22;4446;50.876;4.736;2023-07-13T09:04:56;21.00;99.90
8820;DHT22;4446;50.876;4.736;2023-07-13T09:07:33;21.30;99.90
8820;DHT22;4446;50.876;4.736;2023-07-13T09:10:13;21.20;99.90
8820;DHT22;4446;50.876;4.736;2023-07-13T09:13:03;21.50;99.90
8820;DHT22;4446;50.876;4.736;2023-07-13T09:15:37;21.40;99.90
8820;DHT22;4446;50.876;4.736;2023-07-13T09:18:10;21.20;99.90
8820;DHT22;4446;50.876;4.736;2023-07-13T09:20:42;21.00;99.90
8820;DHT22;4446;50.876;4.736;2023-07-13T09:23:15;20.80;99.90
8820;DHT22;4446;50.876;4.736;2023-07-13T09:25:45;20.70;99.90
8820;DHT22;4446;50.876;4.736;2023-07-13T09:28:16;20.80;99.90
8820;DHT22;4446;50.876;4.736;2023-07-13T09:30:49;21.00;99.90
8820;DHT22;4446;50.876;4.736;2023-07-13T09:33:20;21.10;99.90
8820;DHT22;4446;50.876;4.736;2023-07-13T09:35:47;21.10;99.90
8820;DHT22;4446;50.876;4.736;2023-07-13T09:38:17;21.20;99.90
8820;DHT22;4446;50.876;4.736;2023-07-13T09:40:56;21.20;99.90
8820;DHT22;4446;50.876;4.736;2023-07-13T09:43:26;21.40;99.90
8820;DHT22;4446;50.876;4.736;2023-07-13T09:45:55;21.50;99.90
8820;DHT22;4446;50.876;4.736;2023-07-13T09:48:23;21.70;99.90
8820;DHT22;4446;50.876;4.736;2023-07-13T09:50:55;21.90;99.90
8820;DHT22;4446;50.876;4.736;2023-07-13T09:53:23;22.30;99.90
8820;DHT22;4446;50.876;4.736;2023-07-13T09:55:50;22.50;99.90
8820;DHT22;4446;50.876;4.736;2023-07-13T09:58:19;22.40;99.90
8820;DHT22;4446;50.876;4.736;2023-07-13T10:00:55;22.50;99.90
8820;DHT22;4446;50.876;4.736;2023-07-13T10:03:26;22.50;99.90
8820;DHT22;4446;50.876;4.736;2023-07-13T10:05:54;22.60;99.90
8820;DHT22;4446;50.876;4.736;2023-07-13T10:08:23;22.50;99.90
8820;DHT22;4446;50.876;4.736;2023-07-13T10:10:58;22.70;99.90
8820;DHT22;4446;50.876;4.736;2023-07-13T10:13:34;22.80;99.90
8820;DHT22;4446;50.876;4.736;2023-07-13T10:16:03;23.00;99.90
8820;DHT22;4446;50.876;4.736;2023-07-13T10:18:39;23.20;99.90
8820;DHT22;4446;50.876;4.736;2023-07-13T10:21:15;23.30;99.90
8820;DHT22;4446;50.876;4.736;2023-07-13T10:23:45;23.00;99.90
8820;DHT22;4446;50.876;4.736;2023-07-13T10:26:18;23.00;99.90
8820;DHT22;4446;50.876;4.736;2023-07-13T10:28:50;23.10;99.90
8820;DHT22;4446;50.876;4.736;2023-07-13T10:31:19;23.20;99.90
8820;DHT22;4446;50.876;4.736;2023-07-13T10:33:48;23.10;99.90
8820;DHT22;4446;50.876;4.736;2023-07-13T10:36:22;23.30;99.90
8820;DHT22;4446;50.876;4.736;2023-07-13T10:38:53;23.40;99.90
8820;DHT22;4446;50.876;4.736;2023-07-13T10:41:24;23.30;99.90
8820;DHT22;4446;50.876;4.736;2023-07-13T10:43:54;23.20;99.90
8820;DHT22;4446;50.876;4.736;2023-07-13T10:46:23;23.20;99.90
8820;DHT22;4446;50.876;4.736;2023-07-13T10:48:57;23.10;99.90
8820;DHT22;4446;50.876;4.736;2023-07-13T10:51:25;23.30;99.90
8820;DHT22;4446;50.876;4.736;2023-07-13T10:54:15;23.20;99.90
8820;DHT22;4446;50.876;4.736;2023-07-13T10:56:44;23.20;99.90
8820;DHT22;4446;50.876;4.736;2023-07-13T10:59:14;23.40;99.90
8820;DHT22;4446;50.876;4.736;2023-07-13T11:01:50;23.50;99.90
8820;DHT22;4446;50.876;4.736;2023-07-13T11:04:21;23.40;99.90
8820;DHT22;4446;50.876;4.736;2023-07-13T11:06:53;23.40;99.90
8820;DHT22;4446;50.876;4.736;2023-07-13T11:09:43;23.40;99.90
8820;DHT22;4446;50.876;4.736;2023-07-13T11:15:13;23.90;99.90
8820;DHT22;4446;50.876;4.736;2023-07-13T11:17:53;24.10;99.90
8820;DHT22;4446;50.876;4.736;2023-07-13T11:20:42;24.30;99.90
8820;DHT22;4446;50.876;4.736;2023-07-13T11:23:26;24.30;99.90
8820;DHT22;4446;50.876;4.736;2023-07-13T11:25:54;24.20;99.90
8820;DHT22;4446;50.876;4.736;2023-07-13T11:28:25;24.10;99.90
8820;DHT22;4446;50.876;4.736;2023-07-13T11:31:12;24.00;99.90
8820;DHT22;4446;50.876;4.736;2023-07-13T11:33:56;23.90;99.90
8820;DHT22;4446;50.876;4.736;2023-07-13T11:36:30;24.00;99.90
8820;DHT22;4446;50.876;4.736;2023-07-13T11:39:02;23.70;99.90
8820;DHT22;4446;50.876;4.736;2023-07-13T11:41:32;23.90;99.90
8820;DHT22;4446;50.876;4.736;2023-07-13T11:44:12;23.90;99.90
8820;DHT22;4446;50.876;4.736;2023-07-13T11:46:45;24.20;99.90
8820;DHT22;4446;50.876;4.736;2023-07-13T11:49:15;24.30;99.90
8820;DHT22;4446;50.876;4.736;2023-07-13T11:51:45;24.30;99.90
8820;DHT22;4446;50.876;4.736;2023-07-13T11:54:20;24.20;99.90
8820;DHT22;4446;50.876;4.736;2023-07-13T11:56:49;24.40;99.90
8820;DHT22;4446;50.876;4.736;2023-07-13T11:59:18;24.60;99.90
8820;DHT22;4446;50.876;4.736;2023-07-13T12:01:52;24.50;99.90
8820;DHT22;4446;50.876;4.736;2023-07-13T12:04:23;24.50;99.90
8820;DHT22;4446;50.876;4.736;2023-07-13T12:06:57;24.80;99.90
8820;DHT22;4446;50.876;4.736;2023-07-13T12:09:27;25.10;99.90
8820;DHT22;4446;50.876;4.736;2023-07-13T12:11:57;25.00;99.90
8820;DHT22;4446;50.876;4.736;2023-07-13T12:14:26;25.00;99.90
8820;DHT22;4446;50.876;4.736;2023-07-13T12:16:53;24.90;99.90
8820;DHT22;4446;50.876;4.736;2023-07-13T12:19:21;24.70;99.90
8820;DHT22;4446;50.876;4.736;2023-07-13T12:21:52;24.50;99.90
8820;DHT22;4446;50.876;4.736;2023-07-13T12:24:21;24.00;99.90
8820;DHT22;4446;50.876;4.736;2023-07-13T12:26:53;24.10;99.90
8820;DHT22;4446;50.876;4.736;2023-07-13T12:29:21;24.00;99.90
8820;DHT22;4446;50.876;4.736;2023-07-13T12:31:49;23.70;99.90
8820;DHT22;4446;50.876;4.736;2023-07-13T12:34:19;23.50;99.90
8820;DHT22;4446;50.876;4.736;2023-07-13T12:36:48;23.40;99.90
8820;DHT22;4446;50.876;4.736;2023-07-13T12:39:19;23.50;99.90
8820;DHT22;4446;50.876;4.736;2023-07-13T12:41:48;23.50;99.90
8820;DHT22;4446;50.876;4.736;2023-07-13T12:44:17;23.40;99.90
8820;DHT22;4446;50.876;4.736;2023-07-13T12:46:57;23.20;99.90
8820;DHT22;4446;50.876;4.736;2023-07-13T12:49:28;23.10;99.90
8820;DHT22;4446;50.876;4.736;2023-07-13T12:52:00;23.00;99.90
8820;DHT22;4446;50.876;4.736;2023-07-13T12:54:30;22.90;99.90
8820;DHT22;4446;50.876;4.736;2023-07-13T12:56:58;22.90;99.90
8820;DHT22;4446;50.876;4.736;2023-07-13T12:59:31;23.00;99.90
8820;DHT22;4446;50.876;4.736;2023-07-13T13:02:02;22.70;99.90
8820;DHT22;4446;50.876;4.736;2023-07-13T13:04:30;22.40;99.90
8820;DHT22;4446;50.876;4.736;2023-07-13T13:07:02;22.30;99.90
8820;DHT22;4446;50.876;4.736;2023-07-13T13:09:30;22.00;99.90
8820;DHT22;4446;50.876;4.736;2023-07-13T13:11:58;21.70;99.90
8820;DHT22;4446;50.876;4.736;2023-07-13T13:14:25;21.50;99.90
8820;DHT22;4446;50.876;4.736;2023-07-13T13:16:52;21.30;99.90
8820;DHT22;4446;50.876;4.736;2023-07-13T13:19:22;21.00;99.90
8820;DHT22;4446;50.876;4.736;2023-07-13T13:21:53;20.70;99.90
8820;DHT22;4446;50.876;4.736;2023-07-13T13:24:23;20.40;99.90
8820;DHT22;4446;50.876;4.736;2023-07-13T13:26:52;20.20;99.90
8820;DHT22;4446;50.876;4.736;2023-07-13T13:29:23;20.10;99.90
8820;DHT22;4446;50.876;4.736;2023-07-13T13:31:51;20.10;99.90
8820;DHT22;4446;50.876;4.736;2023-07-13T13:34:18;20.10;99.90
8820;DHT22;4446;50.876;4.736;2023-07-13T13:36:47;20.10;99.90
8820;DHT22;4446;50.876;4.736;2023-07-13T13:39:20;19.90;99.90
8820;DHT22;4446;50.876;4.736;2023-07-13T13:41:48;19.70;99.90
8820;DHT22;4446;50.876;4.736;2023-07-13T13:44:17;19.60;99.90
8820;DHT22;4446;50.876;4.736;2023-07-13T13:46:46;19.60;99.90
8820;DHT22;4446;50.876;4.736;2023-07-13T13:49:16;19.80;99.90
8820;DHT22;4446;50.876;4.736;2023-07-13T13:51:44;20.30;99.90
8820;DHT22;4446;50.876;4.736;2023-07-13T13:54:13;21.20;99.90
8820;DHT22;4446;50.876;4.736;2023-07-13T13:56:42;21.90;99.90
8820;DHT22;4446;50.876;4.736;2023-07-13T13:59:09;22.50;99.90
8820;DHT22;4446;50.876;4.736;2023-07-13T14:01:38;22.60;99.90
8820;DHT22;4446;50.876;4.736;2023-07-13T14:04:09;22.50;99.90
8820;DHT22;4446;50.876;4.736;2023-07-13T14:06:40;22.50;99.90
8820;DHT22;4446;50.876;4.736;2023-07-13T14:09:09;22.50;99.90
8820;DHT22;4446;50.876;4.736;2023-07-13T14:11:37;22.60;99.90
8820;DHT22;4446;50.876;4.736;2023-07-13T14:14:05;22.80;99.90
8820;DHT22;4446;50.876;4.736;2023-07-13T14:16:33;22.90;99.90
8820;DHT22;4446;50.876;4.736;2023-07-13T14:19:02;22.90;99.90
8820;DHT22;4446;50.876;4.736;2023-07-13T14:21:29;23.10;99.90
8820;DHT22;4446;50.876;4.736;2023-07-13T14:23:56;23.30;99.90
8820;DHT22;4446;50.876;4.736;2023-07-13T14:26:26;24.00;99.90
8820;DHT22;4446;50.876;4.736;2023-07-13T14:28:55;24.30;99.90
8820;DHT22;4446;50.876;4.736;2023-07-13T14:31:25;24.30;99.90
8820;DHT22;4446;50.876;4.736;2023-07-13T14:33:54;24.40;99.90
8820;DHT22;4446;50.876;4.736;2023-07-13T14:36:27;24.30;99.90
8820;DHT22;4446;50.876;4.736;2023-07-13T14:38:54;24.30;99.90
8820;DHT22;4446;50.876;4.736;2023-07-13T14:41:22;24.50;99.90
8820;DHT22;4446;50.876;4.736;2023-07-13T14:43:49;24.80;99.90
8820;DHT22;4446;50.876;4.736;2023-07-13T14:46:27;25.30;99.90
8820;DHT22;4446;50.876;4.736;2023-07-13T14:49:00;25.40;99.90
8820;DHT22;4446;50.876;4.736;2023-07-13T14:51:29;26.10;99.90
8820;DHT22;4446;50.876;4.736;2023-07-13T14:54:01;26.30;99.90
8820;DHT22;4446;50.876;4.736;2023-07-13T14:56:29;26.50;99.90
8820;DHT22;4446;50.876;4.736;2023-07-13T14:58:56;26.40;99.90
8820;DHT22;4446;50.876;4.736;2023-07-13T15:01:23;26.00;99.90
8820;DHT22;4446;50.876;4.736;2023-07-13T15:03:52;25.80;99.90
8820;DHT22;4446;50.876;4.736;2023-07-13T15:06:19;25.30;99.90
8820;DHT22;4446;50.876;4.736;2023-07-13T15:08:48;25.00;99.90
8820;DHT22;4446;50.876;4.736;2023-07-13T15:11:16;24.80;99.90
8820;DHT22;4446;50.876;4.736;2023-07-13T15:13:43;24.50;99.90
8820;DHT22;4446;50.876;4.736;2023-07-13T15:16:15;24.50;99.90
8820;DHT22;4446;50.876;4.736;2023-07-13T15:18:44;24.20;99.90
8820;DHT22;4446;50.876;4.736;2023-07-13T15:21:16;24.00;99.90
8820;DHT22;4446;50.876;4.736;2023-07-13T15:23:45;23.90;99.90
8820;DHT22;4446;50.876;4.736;2023-07-13T15:26:15;24.20;99.90
8820;DHT22;4446;50.876;4.736;2023-07-13T15:28:43;24.80;99.90
8820;DHT22;4446;50.876;4.736;2023-07-13T15:31:19;25.30;99.90
8820;DHT22;4446;50.876;4.736;2023-07-13T15:33:48;25.40;99.90
8820;DHT22;4446;50.876;4.736;2023-07-13T15:36:17;25.20;99.90
8820;DHT22;4446;50.876;4.736;2023-07-13T15:38:44;24.90;99.90
8820;DHT22;4446;50.876;4.736;2023-07-13T15:41:21;24.80;99.90
8820;DHT22;4446;50.876;4.736;2023-07-13T15:43:49;24.90;99.90
8820;DHT22;4446;50.876;4.736;2023-07-13T15:46:18;24.90;99.90
8820;DHT22;4446;50.876;4.736;2023-07-13T15:48:46;24.80;99.90
8820;DHT22;4446;50.876;4.736;2023-07-13T15:51:20;24.90;99.90
8820;DHT22;4446;50.876;4.736;2023-07-13T15:53:47;24.80;99.90
8820;DHT22;4446;50.876;4.736;2023-07-13T15:56:21;24.80;99.90
8820;DHT22;4446;50.876;4.736;2023-07-13T15:58:48;25.60;99.90
8820;DHT22;4446;50.876;4.736;2023-07-13T16:01:16;26.40;99.90
8820;DHT22;4446;50.876;4.736;2023-07-13T16:03:45;27.30;99.90
8820;DHT22;4446;50.876;4.736;2023-07-13T16:06:15;27.80;99.90
8820;DHT22;4446;50.876;4.736;2023-07-13T16:08:43;28.20;99.90
8820;DHT22;4446;50.876;4.736;2023-07-13T16:11:22;28.30;99.90
8820;DHT22;4446;50.876;4.736;2023-07-13T16:13:50;29.00;99.90
8820;DHT22;4446;50.876;4.736;2023-07-13T16:16:21;29.40;99.90
8820;DHT22;4446;50.876;4.736;2023-07-13T16:18:52;29.30;99.90